Time;durP1;ratioP1;P1;durP2;ratioP2;P2;SDS_P1;SDS_P2;PMS_P1;PMS_P2;Temp;Humidity;BMP_temperature;BMP_pressure;BME280_temperature;BME280_humidity;BME280_pressure;Samples;Min_cycle;Max_cycle;Signal;HPM_P1;HPM_P2
2021/06/23 00:00:41;;;;;;;6.65;2.50;;;;;;;15.49;59.74;101966.16;3532478;40;20093;-79
2021/06/23 00:03:11;;;;;;;;;;;;;;;15.55;53.28;101983.56;3529175;40;20043;-78
2021/06/23 00:05:39;;;;;;;7.18;2.08;;;;;;;15.45;58.89;101984.66;3543056;40;19982;-79
2021/06/23 00:08:07;;;;;;;;;;;;;;;15.46;52.92;101981.13;3546444;40;20066;-79
2021/06/23 00:10:34;;;;;;;5.00;1.70;;;;;;;15.34;60.08;101970.91;3538579;40;19997;-79
2021/06/23 00:13:04;;;;;;;5.47;2.35;;;;;;;15.37;60.35;101976.09;3522611;40;20057;-79
2021/06/23 00:15:33;;;;;;;5.30;2.13;;;;;;;15.28;60.32;101972.75;3533488;40;20042;-78
2021/06/23 00:18:06;;;;;;;3.70;1.60;;;;;;;15.27;58.76;101973.66;3528171;40;20858;-79
2021/06/23 00:20:34;;;;;;;6.18;2.38;;;;;;;15.25;60.40;101972.81;3530349;40;20083;-79
2021/06/23 00:23:02;;;;;;;6.05;2.20;;;;;;;15.20;60.77;101963.28;3529521;40;20055;-79
2021/06/23 00:25:30;;;;;;;9.15;2.50;;;;;;;15.19;61.19;101965.06;3521182;40;20115;-79
2021/06/23 00:28:03;;;;;;;3.75;1.80;;;;;;;15.15;58.81;101962.53;3540912;40;20133;-79
2021/06/23 00:30:30;;;;;;;6.28;2.40;;;;;;;15.15;61.23;101963.38;3534918;40;20995;-78
2021/06/23 00:33:06;;;;;;;6.37;2.03;;;;;;;15.18;59.29;101960.69;3532276;40;20098;-79
2021/06/23 00:35:35;;;;;;;6.93;2.55;;;;;;;15.17;61.67;101966.00;3543020;40;20282;-78
2021/06/23 00:38:07;;;;;;;5.10;2.38;;;;;;;15.13;60.33;101957.31;3538110;40;20062;-79
2021/06/23 00:40:42;;;;;;;6.10;2.30;;;;;;;15.05;59.48;101948.69;3540846;40;20043;-79
2021/06/23 00:43:13;;;;;;;5.40;2.08;;;;;;;15.08;60.89;101958.31;3530922;40;20432;-78
2021/06/23 00:45:45;;;;;;;6.88;2.60;;;;;;;15.05;60.76;101951.31;3538643;40;20716;-78
2021/06/23 00:48:38;;;;;;;5.38;2.17;;;;;;;15.07;57.69;101957.44;3527139;40;20055;-79
2021/06/23 00:51:06;;;;;;;6.40;2.55;;;;;;;15.00;61.90;101955.81;3513170;40;20065;-79
2021/06/23 00:53:52;;;;;;;5.43;2.08;;;;;;;14.98;61.24;101945.34;3523222;40;20091;-79
2021/06/23 00:56:27;;;;;;;5.50;2.30;;;;;;;14.94;62.01;101945.44;3537430;40;20075;-79
2021/06/23 00:58:58;;;;;;;6.20;2.40;;;;;;;14.95;60.93;101948.06;3530155;40;20452;-79
2021/06/23 01:01:31;;;;;;;5.25;2.25;;;;;;;14.95;60.85;101955.06;3532303;40;20432;-79
2021/06/23 01:04:08;;;;;;;5.82;2.38;;;;;;;14.94;59.81;101950.69;3506583;40;20138;-78
2021/06/23 01:06:41;;;;;;;5.60;2.40;;;;;;;14.81;61.88;101942.22;3528332;40;20082;-78
2021/06/23 01:09:10;;;;;;;5.85;2.22;;;;;;;14.92;61.19;101952.50;3530328;40;20059;-79
2021/06/23 01:11:56;;;;;;;6.35;2.88;;;;;;;14.93;60.44;101954.22;3511745;40;20472;-79
2021/06/23 01:14:33;;;;;;;6.53;2.78;;;;;;;14.88;60.65;101948.19;3518540;40;20106;-78
2021/06/23 01:17:04;;;;;;;5.75;2.15;;;;;;;14.90;60.98;101960.44;3536050;40;20058;-79
2021/06/23 01:19:42;;;;;;;5.40;1.98;;;;;;;14.90;58.82;101955.19;3542657;40;20708;-79
2021/06/23 01:22:15;;;;;;;8.35;2.05;;;;;;;14.87;61.53;101946.47;3518119;40;20349;-78
2021/06/23 01:24:43;;;;;;;5.20;2.28;;;;;;;14.85;62.54;101948.25;3539694;40;20055;-77
2021/06/23 01:27:11;;;;;;;7.38;2.63;;;;;;;14.86;62.92;101953.50;3537522;40;20059;-79
2021/06/23 01:29:39;;;;;;;5.80;2.13;;;;;;;14.78;63.19;101934.38;3527669;40;20078;-79
2021/06/23 01:32:26;;;;;;;6.43;2.47;;;;;;;14.79;63.58;101942.22;3527828;40;20552;-79
2021/06/23 01:34:57;;;;;;;5.43;2.40;;;;;;;14.83;62.56;101952.69;3542186;40;25211;-79
2021/06/23 01:37:25;;;;;;;5.70;2.38;;;;;;;14.73;64.25;101937.09;3534054;40;20175;-79
2021/06/23 01:39:54;;;;;;;;;;;;;;;14.77;56.94;101944.03;3540861;40;20038;-78
2021/06/23 01:42:21;;;;;;;5.32;2.50;;;;;;;14.67;65.48;101931.09;3530134;40;20421;-79
2021/06/23 01:44:48;;;;;;;5.45;2.63;;;;;;;14.62;67.00;101936.44;3534017;40;20114;-79
2021/06/23 01:47:21;;;;;;;5.80;2.42;;;;;;;14.60;64.54;101943.50;3539534;40;20510;-78
2021/06/23 01:49:52;;;;;;;5.47;2.42;;;;;;;14.48;66.19;101925.31;3514985;40;20871;-79
2021/06/23 01:52:20;;;;;;;4.93;2.25;;;;;;;14.40;68.53;101921.97;3539454;40;20038;-79
2021/06/23 01:54:50;;;;;;;5.70;2.38;;;;;;;14.37;69.35;101927.28;3550837;40;20054;-79
2021/06/23 01:57:17;;;;;;;4.60;2.20;;;;;;;14.21;69.57;101922.28;3511845;40;20046;-79
2021/06/23 01:59:49;;;;;;;5.95;2.80;;;;;;;14.20;70.11;101923.19;3539276;40;20075;-79
2021/06/23 02:03:01;;;;;;;5.75;2.63;;;;;;;14.14;70.55;101927.66;3485961;40;20513;-79
2021/06/23 02:06:05;;;;;;;8.30;3.38;;;;;;;14.12;66.12;101932.97;3516126;40;20574;-80
2021/06/23 02:08:58;;;;;;;10.80;3.45;;;;;;;14.03;70.38;101931.34;3507690;40;20043;-79
2021/06/23 02:11:35;;;;;;;7.95;3.45;;;;;;;13.93;72.71;101929.78;3536825;40;20062;-78
2021/06/23 02:14:38;;;;;;;7.22;2.95;;;;;;;13.90;68.29;101934.25;3526261;40;21427;-79
2021/06/23 02:17:30;;;;;;;8.05;3.42;;;;;;;13.79;74.27;101923.91;3522478;40;20437;-78
2021/06/23 02:20:25;;;;;;;7.45;2.88;;;;;;;13.70;75.55;101924.06;3528790;40;20039;-79
2021/06/23 02:22:56;;;;;;;9.02;3.70;;;;;;;13.67;75.65;101930.22;3506111;40;20952;-79
2021/06/23 02:25:29;;;;;;;7.03;2.92;;;;;;;13.54;75.36;101907.69;3514598;40;21297;-79
2021/06/23 02:28:08;;;;;;;7.35;2.83;;;;;;;13.47;75.86;101906.03;3522153;40;20360;-79
2021/06/23 02:30:38;;;;;;;8.45;3.28;;;;;;;13.59;75.52;101926.88;3530653;40;20059;-79
2021/06/23 02:33:08;;;;;;;6.30;2.60;;;;;;;13.54;76.33;101912.94;3538745;40;20062;-79
2021/06/23 02:35:45;;;;;;;7.32;3.08;;;;;;;13.59;74.96;101911.13;3531930;40;20098;-79
2021/06/23 02:38:17;;;;;;;7.22;3.03;;;;;;;13.61;76.36;101918.94;3517743;40;20058;-78
2021/06/23 02:40:48;;;;;;;6.32;2.63;;;;;;;13.53;75.74;101899.81;3526686;40;20097;-78
2021/06/23 02:43:18;;;;;;;5.68;2.35;;;;;;;13.58;75.99;101908.50;3530010;40;20382;-79
2021/06/23 02:45:46;;;;;;;6.32;2.35;;;;;;;13.57;76.82;101909.38;3518492;40;20066;-78
2021/06/23 02:48:31;;;;;;;5.75;2.35;;;;;;;13.59;71.79;101900.63;3527998;40;20073;-78
2021/06/23 02:51:22;;;;;;;6.15;2.45;;;;;;;13.55;74.95;101898.91;3527175;40;20094;-78
2021/06/23 02:54:00;;;;;;;5.82;2.33;;;;;;;13.56;75.28;101905.91;3524939;40;20059;-78
2021/06/23 02:56:42;;;;;;;5.72;1.95;;;;;;;13.46;76.33;101883.31;3525602;40;20055;-78
2021/06/23 02:59:11;;;;;;;7.00;2.63;;;;;;;13.56;76.77;101899.78;3537718;40;20055;-78
2021/06/23 03:01:42;;;;;;;6.95;2.50;;;;;;;13.49;74.43;101894.63;3536284;40;20135;-79
2021/06/23 03:04:18;;;;;;;4.28;1.80;;;;;;;13.48;76.30;101892.00;3537144;40;20043;-78
2021/06/23 03:07:11;;;;;;;6.15;2.28;;;;;;;13.54;74.25;101902.44;3541339;40;20065;-78
2021/06/23 03:09:43;;;;;;;4.28;2.17;;;;;;;13.54;75.49;101891.94;3530972;40;20674;-78
2021/06/23 03:12:46;;;;;;;5.18;2.10;;;;;;;13.45;76.77;101882.44;3538742;40;20448;-78
2021/06/23 03:15:32;;;;;;;5.05;1.92;;;;;;;13.52;76.15;101898.09;3511671;40;20668;-78
2021/06/23 03:18:07;;;;;;;5.70;2.25;;;;;;;13.43;76.89;101875.47;3540177;40;25215;-77
2021/06/23 03:20:36;;;;;;;5.75;2.50;;;;;;;13.49;76.50;101883.28;3539437;40;20054;-78
2021/06/23 03:23:05;;;;;;;6.10;1.77;;;;;;;13.50;75.85;101875.38;3538207;40;20065;-78
2021/06/23 03:25:33;;;;;;;3.63;1.75;;;;;;;13.50;76.59;101875.38;3553250;40;20124;-78
2021/06/23 03:28:04;;;;;;;5.78;2.13;;;;;;;13.48;76.78;101873.66;3547319;40;20109;-78
2021/06/23 03:30:33;;;;;;;4.22;1.85;;;;;;;13.51;76.49;101878.88;3526306;40;20058;-77
2021/06/23 03:33:02;;;;;;;4.18;1.80;;;;;;;13.41;76.70;101864.16;3539661;40;20046;-78
2021/06/23 03:35:39;;;;;;;5.18;2.10;;;;;;;13.45;76.57;101878.97;3535090;40;20070;-77
2021/06/23 03:38:07;;;;;;;4.68;1.75;;;;;;;13.37;77.77;101872.97;3536583;40;20082;-77
2021/06/23 03:40:36;;;;;;;4.18;1.70;;;;;;;13.31;76.95;101863.44;3532191;40;20060;-77
2021/06/23 03:43:05;;;;;;;4.95;1.90;;;;;;;13.40;76.85;101879.03;3541449;40;20109;-77
2021/06/23 03:45:47;;;;;;;4.53;1.88;;;;;;;13.38;76.57;101883.44;3519338;40;20055;-78
2021/06/23 03:48:17;;;;;;;3.53;1.52;;;;;;;13.33;76.19;101872.16;3542464;40;20046;-78
2021/06/23 03:50:52;;;;;;;4.47;1.90;;;;;;;13.33;76.47;101882.66;3520725;40;20050;-78
2021/06/23 03:53:25;;;;;;;;;;;;;;;13.37;69.46;101888.69;3534797;40;20050;-77
2021/06/23 03:55:54;;;;;;;3.42;1.50;;;;;;;13.31;76.10;101875.69;3534697;40;20319;-78
2021/06/23 03:58:26;;;;;;;4.35;1.80;;;;;;;13.22;76.55;101858.31;3526993;40;20051;-78
2021/06/23 04:00:55;;;;;;;3.40;1.40;;;;;;;13.32;76.74;101877.41;3547178;40;20051;-78
2021/06/23 04:04:49;;;;;;;4.47;1.60;;;;;;;13.34;72.25;101873.03;3528881;40;20061;-78
2021/06/23 04:07:27;;;;;;;3.60;1.40;;;;;;;13.24;75.96;101861.81;3510343;40;20047;-78
2021/06/23 04:10:02;;;;;;;;;;;;;;;13.32;68.81;101869.53;3546196;40;20057;-77
2021/06/23 04:12:39;;;;;;;4.85;1.70;;;;;;;13.31;74.72;101878.31;3523697;40;19949;-77
2021/06/23 04:15:11;;;;;;;4.75;1.92;;;;;;;13.24;75.86;101875.78;3525857;40;20079;-77
2021/06/23 04:18:05;;;;;;;5.50;2.05;;;;;;;13.29;72.86;101880.09;3523383;40;20092;-77
2021/06/23 04:20:32;;;;;;;6.25;2.47;;;;;;;13.23;77.20;101879.31;3516323;40;20065;-77
2021/06/23 04:23:09;;;;;;;5.95;2.10;;;;;;;13.14;76.91;101868.91;3517077;40;20082;-76
2021/06/23 04:25:42;;;;;;;3.87;1.67;;;;;;;13.22;76.04;101876.69;3544449;40;20065;-77
2021/06/23 04:28:10;;;;;;;3.95;1.73;;;;;;;13.12;78.14;101868.03;3518946;40;20456;-78
2021/06/23 04:30:43;;;;;;;4.53;1.77;;;;;;;13.14;76.55;101866.28;3523241;40;20062;-77
2021/06/23 04:33:12;;;;;;;5.20;1.83;;;;;;;13.15;78.07;101870.63;3532642;40;20112;-77
2021/06/23 04:35:44;;;;;;;4.20;1.58;;;;;;;13.16;78.19;101864.50;3536769;40;20101;-77
2021/06/23 04:38:15;;;;;;;5.20;1.50;;;;;;;13.14;78.23;101861.03;3540597;40;20347;-78
2021/06/23 04:40:43;;;;;;;4.45;1.67;;;;;;;13.12;79.28;101856.69;3521817;40;20069;-78
2021/06/23 04:43:13;;;;;;;3.63;1.40;;;;;;;13.17;79.25;101863.59;3537708;40;20055;-77
2021/06/23 04:45:41;;;;;;;5.80;1.35;;;;;;;13.20;80.05;101866.19;3530797;40;20058;-77
2021/06/23 04:48:09;;;;;;;3.92;1.52;;;;;;;13.22;78.61;101869.69;3514054;40;25330;-78
2021/06/23 04:50:39;;;;;;;4.53;1.63;;;;;;;13.26;78.05;101867.03;3519662;40;20058;-77
2021/06/23 04:53:12;;;;;;;2.75;1.30;;;;;;;13.22;78.98;101856.56;3533793;40;20114;-77
2021/06/23 04:55:43;;;;;;;2.72;1.10;;;;;;;13.23;79.39;101863.56;3509122;40;20054;-77
2021/06/23 04:58:15;;;;;;;4.63;1.67;;;;;;;13.26;79.65;101865.25;3504830;40;20076;-77
2021/06/23 05:00:46;;;;;;;2.80;1.25;;;;;;;13.27;79.46;101869.59;3533745;40;20452;-77
2021/06/23 05:03:23;;;;;;;4.55;1.63;;;;;;;13.29;79.58;101869.59;3516765;40;20055;-78
2021/06/23 05:05:50;;;;;;;;;;;;;;;13.34;72.86;101867.78;3534297;40;20051;-77
2021/06/23 05:08:18;;;;;;;;;;;;;;;13.36;72.27;101871.22;3536403;40;19938;-78
2021/06/23 05:10:46;;;;;;;2.78;1.30;;;;;;;13.29;79.36;101865.22;3549980;40;19968;-78
2021/06/23 05:13:14;;;;;;;2.22;0.90;;;;;;;13.33;80.21;101876.50;3530346;40;20074;-78
2021/06/23 05:15:41;;;;;;;2.90;1.05;;;;;;;13.29;80.00;101866.97;3530985;40;20108;-77
2021/06/23 05:18:13;;;;;;;;;;;;;;;13.38;73.50;101869.44;3546074;40;20054;-77
2021/06/23 05:20:44;;;;;;;2.92;1.00;;;;;;;13.35;78.07;101877.38;3526283;40;20476;-77
2021/06/23 05:23:12;;;;;;;2.72;0.82;;;;;;;13.27;79.61;101866.97;3546901;40;20285;-77
2021/06/23 05:25:41;;;;;;;2.83;1.30;;;;;;;13.26;78.98;101869.63;3533392;40;20054;-77
2021/06/23 05:28:09;;;;;;;3.17;1.08;;;;;;;13.28;79.26;101873.09;3536323;40;20083;-77
2021/06/23 05:30:56;;;;;;;;;;;;;;;13.32;73.75;101880.03;3540493;40;20055;-77
2021/06/23 05:33:26;;;;;;;2.28;0.85;;;;;;;13.23;78.68;101876.69;3533620;40;19945;-77
2021/06/23 05:35:54;;;;;;;2.33;0.77;;;;;;;13.24;80.14;101878.41;3537550;40;20924;-77
2021/06/23 05:38:23;;;;;;;;;;;;;;;13.31;73.88;101883.56;3534794;40;20054;-77
2021/06/23 05:40:56;;;;;;;1.65;0.77;;;;;;;13.30;78.43;101876.59;3533342;40;20327;-77
2021/06/23 05:43:24;;;;;;;2.50;1.08;;;;;;;13.30;79.72;101881.81;3522284;40;20100;-77
2021/06/23 05:45:51;;;;;;;2.22;0.90;;;;;;;13.30;80.29;101887.06;3528101;40;20059;-77
2021/06/23 05:48:18;;;;;;;1.70;0.90;;;;;;;13.31;80.36;101878.31;3534204;40;20066;-77
2021/06/23 05:50:45;;;;;;;2.10;1.00;;;;;;;13.29;80.29;101874.84;3523122;40;20043;-77
2021/06/23 05:53:41;;;;;;;2.75;0.90;;;;;;;13.39;76.91;101890.44;3536122;40;20121;-77
2021/06/23 05:56:08;;;;;;;2.03;0.80;;;;;;;13.15;79.92;101857.53;3541984;40;20058;-77
2021/06/23 05:58:41;;;;;;;2.10;0.90;;;;;;;13.41;79.21;101890.41;3544040;40;20043;-77
2021/06/23 06:01:09;;;;;;;1.80;0.68;;;;;;;13.40;80.68;101888.66;3520289;40;20051;-77
2021/06/23 06:03:38;;;;;;;3.47;1.17;;;;;;;13.44;80.66;101892.97;3528743;40;20461;-77
2021/06/23 06:06:06;;;;;;;2.25;0.90;;;;;;;13.44;80.60;101891.22;3537939;40;20136;-77
2021/06/23 06:08:34;;;;;;;2.42;0.95;;;;;;;13.45;80.30;101886.84;3539025;40;20077;-77
2021/06/23 06:11:01;;;;;;;2.05;0.90;;;;;;;13.46;80.36;101883.31;3527575;40;20376;-77
2021/06/23 06:13:30;;;;;;;;;;;;;;;13.59;74.54;101894.50;3549141;40;20052;-77
2021/06/23 06:16:03;;;;;;;1.52;0.75;;;;;;;13.57;78.39;101891.88;3542562;40;19941;-77
2021/06/23 06:18:32;;;;;;;2.15;0.90;;;;;;;13.59;79.98;101890.13;3532786;40;20058;-77
2021/06/23 06:21:01;;;;;;;3.97;1.15;;;;;;;13.58;79.89;101882.25;3540240;40;20067;-77
2021/06/23 06:23:37;;;;;;;2.70;0.90;;;;;;;13.63;78.56;101883.91;3520016;40;20105;-77
2021/06/23 06:26:04;;;;;;;2.95;1.10;;;;;;;13.59;79.86;101873.50;3530501;40;20421;-77
2021/06/23 06:28:31;;;;;;;2.17;0.90;;;;;;;13.62;78.99;101886.56;3537454;40;20059;-77
2021/06/23 06:30:59;;;;;;;2.88;1.08;;;;;;;13.61;79.08;101877.81;3527091;40;20054;-78
2021/06/23 06:33:26;;;;;;;1.67;0.93;;;;;;;13.67;79.67;101889.97;3537138;40;20156;-77
2021/06/23 06:36:19;;;;;;;2.88;1.05;;;;;;;13.76;76.38;101893.31;3539962;40;20114;-77
2021/06/23 06:38:47;;;;;;;3.30;0.85;;;;;;;13.74;79.09;101891.63;3545552;40;20086;-77
2021/06/23 06:41:15;;;;;;;;;;;;;;;13.81;73.95;101895.88;3536425;40;20096;-77
2021/06/23 06:43:46;;;;;;;1.90;0.77;;;;;;;13.79;78.26;101896.78;3537709;40;20189;-77
2021/06/23 06:46:14;;;;;;;2.08;1.00;;;;;;;13.79;79.26;101902.91;3533146;40;20062;-77
2021/06/23 06:48:50;;;;;;;2.33;0.80;;;;;;;13.83;77.41;101903.72;3536396;40;20050;-77
2021/06/23 06:51:22;;;;;;;2.53;0.90;;;;;;;13.81;79.03;101895.00;3527349;40;20893;-77
2021/06/23 06:53:57;;;;;;;2.08;0.80;;;;;;;13.86;78.20;101895.78;3536231;40;20113;-77
2021/06/23 06:56:27;;;;;;;1.85;0.77;;;;;;;13.83;78.76;101893.22;3526656;40;20054;-77
2021/06/23 06:58:54;;;;;;;1.42;0.68;;;;;;;13.87;78.89;101905.41;3527817;40;20106;-77
2021/06/23 07:01:26;;;;;;;1.30;0.70;;;;;;;13.90;77.73;101894.84;3542148;40;20063;-77
2021/06/23 07:03:56;;;;;;;1.55;0.70;;;;;;;13.88;78.69;101891.38;3531323;40;20102;-77
2021/06/23 07:06:24;;;;;;;2.58;1.00;;;;;;;13.94;79.32;101907.03;3533993;40;20051;-76
2021/06/23 07:08:52;;;;;;;1.98;0.90;;;;;;;13.96;79.14;101907.88;3518313;40;20062;-77
2021/06/23 07:11:21;;;;;;;1.92;0.88;;;;;;;13.97;79.51;101896.47;3538752;40;20761;-77
2021/06/23 07:13:52;;;;;;;1.80;0.82;;;;;;;14.07;78.46;101903.28;3536740;40;20054;-77
2021/06/23 07:16:21;;;;;;;1.35;0.80;;;;;;;14.10;79.23;101897.13;3536048;40;20063;-77
2021/06/23 07:18:50;;;;;;;1.52;0.75;;;;;;;14.13;79.41;101892.66;3537592;40;20066;-76
2021/06/23 07:21:18;;;;;;;1.92;0.70;;;;;;;14.14;79.39;101894.41;3534562;40;20063;-77
2021/06/23 07:23:46;;;;;;;;;;;;;;;14.27;74.50;101895.91;3541851;40;20054;-77
2021/06/23 07:26:14;;;;;;;2.85;1.20;;;;;;;14.21;78.25;101880.25;3545607;40;19937;-77
2021/06/23 07:31:15;;;;;;;1.25;0.50;;;;;;;14.26;78.33;101881.03;3546015;40;20418;-77
2021/06/23 07:33:51;;;;;;;1.45;0.80;;;;;;;14.32;78.06;101881.81;3535757;40;20788;-77
2021/06/23 07:36:34;;;;;;;1.15;0.60;;;;;;;14.42;78.07;101899.13;3527302;40;20117;-77
2021/06/23 07:39:07;;;;;;;1.00;0.50;;;;;;;14.44;78.05;101899.97;3506615;40;20062;-77
2021/06/23 07:41:44;;;;;;;1.77;0.75;;;;;;;14.52;77.24;101895.47;3533823;40;22222;-77
2021/06/23 07:44:12;;;;;;;3.85;0.70;;;;;;;14.44;78.31;101892.94;3535666;40;20050;-76
2021/06/23 07:46:48;;;;;;;1.17;0.60;;;;;;;14.57;78.47;101909.38;3531947;40;20050;-77
2021/06/23 07:49:16;;;;;;;0.93;0.50;;;;;;;14.61;78.23;101899.69;3524849;40;20067;-77
2021/06/23 07:52:21;;;;;;;1.08;0.43;;;;;;;14.68;76.96;101907.41;3541558;40;20055;-77
2021/06/23 08:08:46;;;;;;;1.90;0.60;;;;;;;15.04;77.82;101894.34;3530515;40;20974;-77
2021/06/23 08:11:21;;;;;;;1.98;0.80;;;;;;;15.11;77.49;101890.72;3524689;40;20065;-77
2021/06/23 08:13:56;;;;;;;1.48;0.60;;;;;;;15.25;76.52;101904.41;3534770;40;20107;-77
2021/06/23 08:16:27;;;;;;;0.90;0.60;;;;;;;15.31;76.52;101904.28;3527529;40;20074;-76
2021/06/23 08:18:55;;;;;;;1.20;0.60;;;;;;;15.32;76.61;101905.13;3531856;40;20058;-77
2021/06/23 08:21:22;;;;;;;1.00;0.50;;;;;;;15.36;76.95;101898.00;3536837;40;20118;-77
2021/06/23 08:23:51;;;;;;;1.17;0.55;;;;;;;15.39;76.66;101901.44;3528960;40;20360;-77
2021/06/23 08:26:20;;;;;;;0.90;0.50;;;;;;;15.37;76.47;101897.13;3535041;40;20082;-76
2021/06/23 08:28:48;;;;;;;1.13;0.57;;;;;;;15.39;76.45;101895.31;3531684;40;20146;-77
2021/06/23 08:31:16;;;;;;;0.98;0.50;;;;;;;15.39;76.88;101900.59;3536898;40;20063;-77
2021/06/23 08:33:42;;;;;;;1.00;0.40;;;;;;;15.40;76.81;101899.69;3537909;40;20676;-76
2021/06/23 08:36:13;;;;;;;0.88;0.60;;;;;;;15.47;76.72;101899.50;3532332;40;20059;-77
2021/06/23 08:38:41;;;;;;;1.10;0.63;;;;;;;15.41;76.21;101889.13;3532854;40;20446;-77
2021/06/23 08:41:08;;;;;;;0.60;0.45;;;;;;;15.48;76.94;101903.00;3536280;40;20779;-77
2021/06/23 08:43:36;;;;;;;0.98;0.50;;;;;;;15.50;77.26;101882.75;3533601;40;20054;-77
2021/06/23 08:46:04;;;;;;;1.38;0.55;;;;;;;15.57;77.34;101894.91;3533492;40;20961;-77
2021/06/23 08:48:32;;;;;;;0.80;0.60;;;;;;;15.56;77.19;101886.13;3540239;40;20336;-77
2021/06/23 08:51:04;;;;;;;1.67;0.90;;;;;;;15.60;76.19;101879.00;3547072;40;20063;-78
2021/06/23 08:53:34;;;;;;;0.80;0.50;;;;;;;15.61;76.76;101867.56;3536408;40;20507;-77
2021/06/23 08:56:04;;;;;;;1.42;0.68;;;;;;;15.73;76.19;101885.75;3531394;40;20051;-77
2021/06/23 08:58:31;;;;;;;1.33;0.70;;;;;;;15.70;77.27;101880.53;3534757;40;20075;-77
2021/06/23 09:01:01;;;;;;;1.25;0.63;;;;;;;15.81;76.58;101882.91;3542152;40;20126;-78
2021/06/23 09:03:29;;;;;;;0.90;0.60;;;;;;;15.82;76.77;101877.59;3527852;40;20109;-77
2021/06/23 09:05:56;;;;;;;;;;;;;;;15.95;72.03;101879.91;3536836;40;20047;-77
2021/06/23 09:08:30;;;;;;;;;;;;;;;16.00;71.65;101872.75;3538088;40;19961;-77
2021/06/23 09:10:58;;;;;;;1.67;0.80;;;;;;;15.89;75.85;101869.53;3530396;40;20046;-77
2021/06/23 09:13:27;;;;;;;1.45;0.80;;;;;;;16.06;75.79;101872.59;3544095;40;20419;-77
2021/06/23 09:15:56;;;;;;;1.42;0.77;;;;;;;16.10;75.69;101874.22;3537630;40;20447;-77
2021/06/23 09:18:30;;;;;;;1.90;0.88;;;;;;;16.13;75.23;101865.41;3540074;40;20068;-77
2021/06/23 09:21:19;;;;;;;1.40;0.82;;;;;;;16.15;75.97;101869.72;3521911;40;20108;-77
2021/06/23 09:23:50;;;;;;;2.28;1.05;;;;;;;16.24;75.21;101861.56;3542509;40;20431;-77
2021/06/23 09:26:27;;;;;;;1.65;0.80;;;;;;;16.34;75.74;101873.56;3522441;40;20521;-77
2021/06/23 09:29:18;;;;;;;1.98;1.00;;;;;;;16.45;73.60;101873.25;3536844;40;20092;-77
2021/06/23 09:32:05;;;;;;;2.85;1.40;;;;;;;16.52;73.94;101873.94;3525572;40;20066;-77
2021/06/23 09:34:45;;;;;;;2.20;1.08;;;;;;;16.58;74.07;101865.88;3532112;40;20470;-77
2021/06/23 09:37:37;;;;;;;2.85;1.08;;;;;;;16.65;72.99;101869.19;3538834;40;20106;-77
2021/06/23 09:40:13;;;;;;;2.42;1.10;;;;;;;16.67;74.69;101865.59;3533149;40;20076;-77
2021/06/23 09:42:56;;;;;;;1.98;0.90;;;;;;;16.70;74.40;101862.88;3544914;40;20691;-77
2021/06/23 09:45:32;;;;;;;2.50;1.27;;;;;;;16.76;74.46;101868.00;3522449;40;20458;-77
2021/06/23 09:48:07;;;;;;;2.22;1.17;;;;;;;16.81;74.70;101866.06;3538626;40;20095;-77
2021/06/23 09:50:36;;;;;;;3.70;1.65;;;;;;;16.79;74.67;101859.13;3536526;40;20095;-78
2021/06/23 09:53:09;;;;;;;3.67;1.48;;;;;;;16.91;74.31;101869.31;3537705;40;20055;-77
2021/06/23 09:55:40;;;;;;;3.40;1.27;;;;;;;16.93;73.80;101869.25;3524422;40;20527;-78
2021/06/23 09:58:10;;;;;;;2.92;1.42;;;;;;;16.91;73.93;101868.44;3534445;40;20371;-77
2021/06/23 10:01:05;;;;;;;4.00;1.73;;;;;;;16.97;71.90;101862.97;3534416;40;20463;-77
2021/06/23 10:03:50;;;;;;;3.20;1.52;;;;;;;16.89;74.21;101865.00;3544594;40;20114;-77
2021/06/23 10:06:33;;;;;;;5.13;2.33;;;;;;;16.95;72.24;101865.66;3529047;40;20069;-78
2021/06/23 10:09:26;;;;;;;4.07;1.85;;;;;;;16.93;72.32;101869.25;3532939;40;20074;-77
2021/06/23 10:12:01;;;;;;;3.67;1.95;;;;;;;16.90;74.16;101867.59;3527990;40;20695;-77
2021/06/23 10:14:33;;;;;;;4.88;2.08;;;;;;;16.85;74.90;101865.09;3533875;40;20049;-77
2021/06/23 10:17:04;;;;;;;4.25;1.95;;;;;;;16.87;74.83;101867.66;3544739;40;20661;-77
2021/06/23 10:19:39;;;;;;;4.90;2.17;;;;;;;16.93;73.67;101874.53;3537982;40;20059;-77
2021/06/23 10:22:11;;;;;;;5.70;2.17;;;;;;;16.83;75.68;101860.78;3538758;40;20069;-77
2021/06/23 10:24:56;;;;;;;4.97;2.17;;;;;;;16.99;74.89;101866.44;3536952;40;20058;-77
2021/06/23 10:27:24;;;;;;;4.78;2.05;;;;;;;16.97;75.79;101863.84;3535134;40;20062;-77
2021/06/23 10:29:58;;;;;;;6.28;2.42;;;;;;;17.11;74.70;101866.06;3532675;40;20063;-77
2021/06/23 10:32:27;;;;;;;4.13;1.77;;;;;;;17.16;75.64;101863.28;3525045;40;20054;-77
2021/06/23 10:34:55;;;;;;;5.40;2.60;;;;;;;17.14;75.58;101854.56;3539146;40;20082;-77
2021/06/23 10:37:33;;;;;;;5.70;2.72;;;;;;;17.28;73.90;101869.00;3534007;40;20054;-77
2021/06/23 10:40:04;;;;;;;6.70;2.90;;;;;;;17.29;74.36;101865.47;3522925;40;20094;-76
2021/06/23 10:42:32;;;;;;;6.63;2.92;;;;;;;17.32;74.28;101864.50;3544243;40;20051;-77
2021/06/23 10:45:04;;;;;;;7.07;3.55;;;;;;;17.38;73.94;101862.53;3531973;40;20051;-77
2021/06/23 10:47:31;;;;;;;6.53;2.90;;;;;;;17.40;74.26;101866.91;3534507;40;20111;-77
2021/06/23 10:50:00;;;;;;;7.45;3.38;;;;;;;17.41;74.23;101863.34;3537583;40;20070;-77
2021/06/23 10:52:30;;;;;;;8.52;3.65;;;;;;;17.43;74.60;101869.44;3533439;40;20118;-77
2021/06/23 10:55:00;;;;;;;7.97;3.47;;;;;;;17.47;74.79;101863.16;3527947;40;20075;-77
2021/06/23 10:57:45;;;;;;;9.10;4.38;;;;;;;17.51;73.01;101867.41;3535292;40;20051;-77
2021/06/23 11:00:12;;;;;;;8.55;4.10;;;;;;;17.51;74.58;101870.06;3532834;40;20091;-77
2021/06/23 11:02:42;;;;;;;8.68;3.88;;;;;;;17.52;73.91;101855.94;3535223;40;20086;-77
2021/06/23 11:05:10;;;;;;;8.52;4.03;;;;;;;17.56;74.46;101860.22;3538003;40;20065;-77
2021/06/23 11:07:58;;;;;;;10.35;4.45;;;;;;;17.63;73.45;101864.34;3543947;40;20063;-77
2021/06/23 11:10:39;;;;;;;9.75;4.20;;;;;;;17.64;72.77;101868.75;3537626;40;20065;-77
2021/06/23 11:13:15;;;;;;;10.52;4.20;;;;;;;17.68;74.59;101866.84;3528337;40;20408;-77
2021/06/23 11:15:45;;;;;;;8.98;4.13;;;;;;;17.71;74.19;101872.91;3543671;40;20065;-77
2021/06/23 11:18:24;;;;;;;8.32;3.92;;;;;;;17.81;73.33;101862.91;3536414;40;20079;-78
2021/06/23 11:21:01;;;;;;;9.45;4.80;;;;;;;17.85;72.88;101868.06;3530661;40;20063;-77
2021/06/23 11:23:59;;;;;;;8.30;4.05;;;;;;;17.94;72.36;101868.63;3525356;40;20070;-77
2021/06/23 11:26:29;;;;;;;9.93;4.82;;;;;;;17.96;73.44;101872.09;3535646;40;20069;-78
2021/06/23 11:29:08;;;;;;;10.45;5.50;;;;;;;18.00;72.76;101868.44;3532765;40;20592;-77
2021/06/23 11:31:58;;;;;;;8.85;4.18;;;;;;;18.01;73.19;101862.22;3535391;40;20117;-78
2021/06/23 11:34:43;;;;;;;9.85;4.65;;;;;;;18.03;72.96;101857.75;3542605;40;20088;-78
2021/06/23 11:37:15;;;;;;;16.10;5.47;;;;;;;18.03;74.38;101865.66;3534106;40;20402;-77
2021/06/23 11:39:43;;;;;;;9.35;4.93;;;;;;;18.03;74.87;101870.97;3536417;40;20057;-77
2021/06/23 11:42:12;;;;;;;8.95;4.28;;;;;;;18.07;74.33;101869.94;3535837;40;20059;-77
2021/06/23 11:44:40;;;;;;;9.35;4.43;;;;;;;18.06;74.40;101869.06;3532880;40;20384;-77
2021/06/23 11:47:09;;;;;;;8.73;4.53;;;;;;;18.08;74.24;101856.66;3540934;40;20055;-77
2021/06/23 11:49:38;;;;;;;8.15;3.88;;;;;;;18.09;75.30;101860.16;3533329;40;20059;-77
2021/06/23 11:52:08;;;;;;;9.27;3.83;;;;;;;18.02;74.62;101845.44;3535497;40;20315;-77
2021/06/23 11:54:37;;;;;;;7.85;3.58;;;;;;;18.11;75.11;101855.69;3539590;40;20539;-77
2021/06/23 11:57:08;;;;;;;6.43;3.30;;;;;;;18.18;75.31;101865.13;3534212;40;20050;-77
2021/06/23 11:59:43;;;;;;;6.10;3.00;;;;;;;18.19;74.88;101860.69;3532444;40;20065;-77
2021/06/23 12:02:11;;;;;;;6.07;2.67;;;;;;;18.25;75.16;101861.38;3524914;40;21096;-77
2021/06/23 12:04:41;;;;;;;6.43;2.72;;;;;;;18.27;75.39;101858.66;3532410;40;20149;-77
2021/06/23 12:07:07;;;;;;;6.28;3.10;;;;;;;18.29;76.02;101862.09;3527654;40;20454;-77
2021/06/23 12:09:35;;;;;;;6.57;2.60;;;;;;;18.35;76.79;101860.09;3532998;40;20074;-77
2021/06/23 12:12:04;;;;;;;6.55;3.13;;;;;;;18.36;76.09;101856.53;3538116;40;20061;-77
2021/06/23 12:14:32;;;;;;;5.18;2.22;;;;;;;18.41;76.24;101865.16;3532664;40;20089;-77